Watson, Arkansas
Current Conditions -  °F | °C
As of 7:15 PM on Tuesday 21 Oct 2014 (Local Time) from KRNV Reporting Station
Haze Haze  
Wind Chill: 66°   Ceiling: Unl
Heat Index: 66°   Visibility: 4mi
Dew Point: 59°   Wind: 6mph
Humidity: 79%   Direction: 360°N
Pressure: 30.03"   Gusts: NA
Location:  33.9°N, 91.26°W
Report Text: KRNV 220015Z AUTO 36005KT 4SM HZ CLR 19/15 A3003 RMK AO2 T01900152
Loading
Personal Weather Stations






























Interactive Weather Map
Tropical Storm Tracking
New forecast layout! Learn more

10-Day Weather Forecast

Advertisements
Track Severe Weather on mobile